createdAt,value
2018-04-02T00:00:11.059Z,13.40
2018-04-02T00:02:38.619Z,12.85
2018-04-02T00:05:06.239Z,13.98
2018-04-02T00:07:33.800Z,15.57
2018-04-02T00:10:01.462Z,15.38
2018-04-02T00:12:29.063Z,13.95
2018-04-02T00:14:56.631Z,13.60
2018-04-02T00:17:24.213Z,12.82
2018-04-02T00:19:51.954Z,14.50
2018-04-02T00:22:19.511Z,15.32
2018-04-02T00:24:47.090Z,16.27
2018-04-02T00:27:14.660Z,14.60
2018-04-02T00:29:42.251Z,15.07
2018-04-02T00:32:09.846Z,14.55
2018-04-02T00:34:37.407Z,16.87
2018-04-02T00:37:04.986Z,14.57
2018-04-02T00:39:32.536Z,14.80
2018-04-02T00:42:00.198Z,14.10
2018-04-02T00:44:27.759Z,14.82
2018-04-02T00:46:55.312Z,16.30
2018-04-02T00:49:22.878Z,15.98
2018-04-02T00:51:50.743Z,14.65
2018-04-02T00:57:09.061Z,13.32
2018-04-02T00:59:36.612Z,15.20
2018-04-02T01:02:04.183Z,13.70
2018-04-02T01:04:31.731Z,13.32
2018-04-02T01:06:59.283Z,13.90
2018-04-02T01:09:26.860Z,13.68
2018-04-02T01:11:54.411Z,12.55
2018-04-02T01:14:22.229Z,12.93
2018-04-02T01:16:49.779Z,14.73
2018-04-02T01:19:17.340Z,13.85
2018-04-02T01:21:45.006Z,13.43
2018-04-02T01:24:12.563Z,13.35
2018-04-02T01:26:40.234Z,14.65
2018-04-02T01:29:07.790Z,14.80
2018-04-02T01:31:35.365Z,16.17
2018-04-02T01:34:02.943Z,15.15
2018-04-02T01:36:30.490Z,14.10
2018-04-02T01:38:58.165Z,14.40
2018-04-02T01:41:25.719Z,14.90
2018-04-02T01:43:53.271Z,13.23
2018-04-02T01:46:20.855Z,12.52
2018-04-02T01:48:48.403Z,13.70
2018-04-02T01:51:16.231Z,13.70
2018-04-02T01:53:43.779Z,16.62
2018-04-02T01:56:11.362Z,14.80
2018-04-02T01:58:38.946Z,12.90
2018-04-02T02:01:06.499Z,14.73
2018-04-02T02:03:34.238Z,12.25
2018-04-02T02:06:01.786Z,13.88
2018-04-02T02:08:29.411Z,15.05
2018-04-02T02:10:56.991Z,14.73
2018-04-02T02:13:24.551Z,15.55
2018-04-02T02:15:52.142Z,14.87
2018-04-02T02:18:19.704Z,14.50
2018-04-02T02:20:47.262Z,12.80
2018-04-02T02:23:14.850Z,14.50
2018-04-02T02:25:42.410Z,14.38
2018-04-02T02:28:10.250Z,16.15
2018-04-02T02:30:37.811Z,12.65
2018-04-02T02:33:05.375Z,14.05
2018-04-02T02:35:33.833Z,15.55
2018-04-02T02:38:01.378Z,15.77
2018-04-02T02:40:29.173Z,14.60
2018-04-02T02:42:56.751Z,15.38
2018-04-02T02:45:24.327Z,13.75
2018-04-02T02:47:51.913Z,13.85
2018-04-02T02:50:19.475Z,12.85
2018-04-02T02:52:47.170Z,14.95
2018-04-02T02:55:14.730Z,14.73
2018-04-02T02:57:42.279Z,14.18
2018-04-02T03:00:09.868Z,14.45
2018-04-02T03:02:37.419Z,13.65
2018-04-02T03:05:05.007Z,15.75
2018-04-02T03:07:32.616Z,16.50
2018-04-02T03:10:00.168Z,15.38
2018-04-02T03:12:27.747Z,17.23
2018-04-02T03:14:55.299Z,14.43
2018-04-02T03:17:22.878Z,13.73
2018-04-02T03:19:50.447Z,15.43
2018-04-02T03:22:18.002Z,12.75
2018-04-02T03:24:45.741Z,16.92
2018-04-02T03:27:13.299Z,14.63
2018-04-02T03:29:40.894Z,14.32
2018-04-02T03:32:08.450Z,16.12
2018-04-02T03:34:36.006Z,14.02
2018-04-02T03:37:03.584Z,16.95
2018-04-02T03:39:31.143Z,16.48
2018-04-02T03:41:58.739Z,15.75
2018-04-02T03:44:26.291Z,15.70
2018-04-02T03:46:53.852Z,12.98
2018-04-02T03:49:21.420Z,16.50
2018-04-02T03:51:48.975Z,14.13
2018-04-02T03:54:16.663Z,14.45
2018-04-02T03:56:44.226Z,14.48
2018-04-02T03:59:12.566Z,14.63
2018-04-02T04:01:40.135Z,16.42
2018-04-02T04:04:07.688Z,14.13
2018-04-02T04:06:35.266Z,16.00
2018-04-02T04:09:02.826Z,15.57
2018-04-02T04:11:30.382Z,14.18
2018-04-02T04:13:57.956Z,14.18
2018-04-02T04:16:25.503Z,13.30
2018-04-02T04:18:53.369Z,14.35
2018-04-02T04:21:20.919Z,14.60
2018-04-02T04:23:48.477Z,12.23
2018-04-02T04:26:16.051Z,12.68
2018-04-02T04:28:43.924Z,12.82
2018-04-02T04:31:11.884Z,12.98
2018-04-02T04:33:39.471Z,14.13
2018-04-02T04:36:07.039Z,12.98
2018-04-02T04:38:34.610Z,11.65
2018-04-02T04:41:02.158Z,12.35
2018-04-02T04:43:30.501Z,13.05
2018-04-02T04:45:58.160Z,11.00
2018-04-02T04:48:27.392Z,11.35
2018-04-02T04:50:55.010Z,11.70
2018-04-02T04:53:22.885Z,11.90
2018-04-02T04:55:50.478Z,12.88
2018-04-02T04:58:18.031Z,12.30
2018-04-02T05:00:45.583Z,12.32
2018-04-02T05:03:13.179Z,10.35
2018-04-02T05:05:41.643Z,11.20
2018-04-02T05:08:09.454Z,13.85
2018-04-02T05:10:37.006Z,10.57
2018-04-02T05:13:04.559Z,12.02
2018-04-02T05:15:32.178Z,10.75
2018-04-02T05:17:59.739Z,10.95
2018-04-02T05:20:27.474Z,11.68
2018-04-02T05:22:55.018Z,9.20
2018-04-02T05:25:22.576Z,10.65
2018-04-02T05:27:50.151Z,11.88
2018-04-02T05:30:17.714Z,10.88
2018-04-02T05:32:45.682Z,10.30
2018-04-02T05:35:14.158Z,9.93
2018-04-02T05:37:41.706Z,8.60
2018-04-02T05:40:09.274Z,9.23
2018-04-02T05:42:36.823Z,9.20
2018-04-02T05:45:04.401Z,9.23
2018-04-02T05:47:31.943Z,9.30
2018-04-02T05:49:59.505Z,10.65
2018-04-02T05:52:27.071Z,9.63
2018-04-02T05:54:54.624Z,8.90
2018-04-02T05:57:22.294Z,8.02
2018-04-02T05:59:49.839Z,7.57
2018-04-02T06:02:17.398Z,7.35
2018-04-02T06:04:44.970Z,7.32
2018-04-02T06:07:12.523Z,7.15
2018-04-02T06:09:40.302Z,7.50
2018-04-02T06:12:07.841Z,7.20
2018-04-02T06:14:35.387Z,6.10
2018-04-02T06:17:02.986Z,6.90
2018-04-02T06:19:30.524Z,6.30
2018-04-02T06:21:58.095Z,6.75
2018-04-02T06:24:25.639Z,5.12
2018-04-02T06:26:53.618Z,5.15
2018-04-02T06:29:21.208Z,6.32
2018-04-02T06:31:48.785Z,6.07
2018-04-02T06:34:16.706Z,6.37
2018-04-02T06:36:44.256Z,5.95
2018-04-02T06:39:11.818Z,6.53
2018-04-02T06:41:39.391Z,6.28
2018-04-02T06:44:06.934Z,4.95
2018-04-02T06:46:34.509Z,6.20
2018-04-02T06:49:02.051Z,6.55
2018-04-02T06:51:29.598Z,5.75
2018-04-02T06:53:57.174Z,5.72
2018-04-02T06:56:24.725Z,5.65
2018-04-02T06:58:52.321Z,6.03
2018-04-02T07:01:19.886Z,5.70
2018-04-02T07:03:47.450Z,5.03
2018-04-02T07:06:15.023Z,5.25
2018-04-02T07:08:42.583Z,5.57
2018-04-02T07:11:10.307Z,5.68
2018-04-02T07:13:37.854Z,4.93
2018-04-02T07:16:05.407Z,5.22
2018-04-02T07:18:32.976Z,5.07
2018-04-02T07:21:00.528Z,5.55
2018-04-02T07:23:28.302Z,5.47
2018-04-02T07:25:55.966Z,5.68
2018-04-02T07:28:23.522Z,5.90
2018-04-02T07:30:51.118Z,5.53
2018-04-02T07:33:18.667Z,4.78
2018-04-02T07:35:46.394Z,4.95
2018-04-02T07:38:13.970Z,5.50
2018-04-02T07:40:41.574Z,4.25
2018-04-02T07:43:09.173Z,6.32
2018-04-02T07:45:36.750Z,6.03
2018-04-02T07:48:04.884Z,5.40
2018-04-02T07:50:32.430Z,5.53
2018-04-02T07:53:00.264Z,5.40
2018-04-02T07:55:30.610Z,5.30
2018-04-02T07:57:58.183Z,4.33
2018-04-02T08:00:26.198Z,4.20
2018-04-02T08:02:54.033Z,5.00
2018-04-02T08:05:21.594Z,5.70
2018-04-02T08:07:49.170Z,4.53
2018-04-02T08:10:16.718Z,4.53
2018-04-02T08:12:44.448Z,4.97
2018-04-02T08:15:13.277Z,4.20
2018-04-02T08:17:40.956Z,4.80
2018-04-02T08:20:08.544Z,4.40
2018-04-02T08:22:36.118Z,4.70
2018-04-02T08:25:03.971Z,3.90
2018-04-02T08:27:31.526Z,3.37
2018-04-02T08:29:59.074Z,3.33
2018-04-02T08:32:27.582Z,2.53
2018-04-02T08:34:55.138Z,3.27
2018-04-02T08:37:22.848Z,2.67
2018-04-02T08:39:50.402Z,2.30
2018-04-02T08:42:17.961Z,2.23
2018-04-02T08:44:45.548Z,2.40
2018-04-02T08:47:13.511Z,2.47
2018-04-02T08:49:41.097Z,2.27
2018-04-02T08:52:08.643Z,2.40
2018-04-02T08:54:36.290Z,3.00
2018-04-02T08:57:03.857Z,2.20
2018-04-02T08:59:31.406Z,2.57
2018-04-02T09:01:59.425Z,1.90
2018-04-02T09:04:26.990Z,2.47
2018-04-02T09:06:54.543Z,2.70
2018-04-02T09:09:22.147Z,1.97
2018-04-02T09:11:49.753Z,2.37
2018-04-02T09:14:17.350Z,2.07
2018-04-02T09:16:44.906Z,1.97
2018-04-02T09:19:12.663Z,1.87
2018-04-02T09:21:40.263Z,2.20
2018-04-02T09:24:07.978Z,1.90
2018-04-02T09:26:37.030Z,2.00
2018-04-02T09:29:04.786Z,2.30
2018-04-02T09:31:32.805Z,2.20
2018-04-02T09:34:00.857Z,1.50
2018-04-02T09:36:29.304Z,1.67
2018-04-02T09:38:57.481Z,1.60
2018-04-02T09:41:25.138Z,1.40
2018-04-02T09:43:53.006Z,1.17
2018-04-02T09:46:21.226Z,1.50
2018-04-02T09:48:48.942Z,1.33
2018-04-02T09:51:17.373Z,1.80
2018-04-02T09:53:44.982Z,1.80
2018-04-02T09:56:12.562Z,1.90
2018-04-02T09:58:40.191Z,1.87
2018-04-02T10:01:08.082Z,1.73
2018-04-02T10:03:39.018Z,2.00
2018-04-02T10:06:06.774Z,1.50
2018-04-02T10:08:34.351Z,2.20
2018-04-02T10:11:01.948Z,1.50
2018-04-02T10:13:29.495Z,1.70
2018-04-02T10:15:57.343Z,1.50
2018-04-02T10:18:24.907Z,1.67
2018-04-02T10:20:52.752Z,1.90
2018-04-02T10:23:20.347Z,1.77
2018-04-02T10:25:48.887Z,1.57
2018-04-02T10:28:16.676Z,1.20
2018-04-02T10:30:44.323Z,1.50
2018-04-02T10:33:11.818Z,1.40
2018-04-02T10:35:39.438Z,1.70
2018-04-02T10:38:07.092Z,1.97
2018-04-02T10:40:34.702Z,1.60
2018-04-02T10:43:02.260Z,1.40
2018-04-02T10:45:29.831Z,1.57
2018-04-02T10:47:57.678Z,1.60
2018-04-02T10:50:25.243Z,1.80
2018-04-02T10:52:53.088Z,1.50
2018-04-02T10:55:20.678Z,1.57
2018-04-02T10:57:48.319Z,1.70
2018-04-02T11:00:15.906Z,1.93
2018-04-02T11:02:43.452Z,1.50
2018-04-02T11:05:11.371Z,1.97
2018-04-02T11:07:38.934Z,1.80
2018-04-02T11:10:06.494Z,1.50
2018-04-02T11:12:34.253Z,2.20
2018-04-02T11:15:01.823Z,1.60
2018-04-02T11:17:29.884Z,1.50
2018-04-02T11:19:57.435Z,1.50
2018-04-02T11:22:25.048Z,1.50
2018-04-02T11:24:52.859Z,1.67
2018-04-02T11:27:20.735Z,5.60
2018-04-02T11:29:48.500Z,1.70
2018-04-02T11:32:16.163Z,1.60
2018-04-02T11:34:44.130Z,1.50
2018-04-02T11:37:11.736Z,1.57
2018-04-02T11:39:39.302Z,1.60
2018-04-02T11:42:06.902Z,1.37
2018-04-02T11:44:34.675Z,1.70
2018-04-02T11:47:02.224Z,1.77
2018-04-02T11:49:29.851Z,1.60
2018-04-02T11:51:57.739Z,1.63
2018-04-02T11:54:26.250Z,1.90
2018-04-02T11:56:54.002Z,1.67
2018-04-02T11:59:21.873Z,1.60
2018-04-02T12:01:50.650Z,1.87
2018-04-02T12:04:18.313Z,1.67
2018-04-02T12:06:46.123Z,1.37
2018-04-02T12:09:14.665Z,2.00
2018-04-02T12:11:42.331Z,1.37
2018-04-02T12:14:09.942Z,2.07
2018-04-02T12:16:37.501Z,1.67
2018-04-02T12:19:05.431Z,1.70
2018-04-02T12:21:33.000Z,1.87
2018-04-02T12:24:00.594Z,1.50
2018-04-02T12:26:28.274Z,1.70
2018-04-02T12:28:55.845Z,1.23
2018-04-02T12:31:23.607Z,1.40
2018-04-02T12:33:51.146Z,1.50
2018-04-02T12:36:18.701Z,1.37
2018-04-02T12:38:46.305Z,1.40
2018-04-02T12:41:13.850Z,1.60
2018-04-02T12:43:41.671Z,1.40
2018-04-02T12:46:09.230Z,1.53
2018-04-02T12:48:36.770Z,1.30
2018-04-02T12:51:04.423Z,1.30
2018-04-02T12:53:31.983Z,1.30
2018-04-02T12:55:59.866Z,1.50
2018-04-02T12:58:27.496Z,1.17
2018-04-02T13:00:55.098Z,1.03
2018-04-02T13:03:22.678Z,1.43
2018-04-02T13:05:50.231Z,1.83
2018-04-02T13:08:17.839Z,1.80
2018-04-02T13:10:45.386Z,1.70
2018-04-02T13:13:12.942Z,1.30
2018-04-02T13:15:40.554Z,1.40
2018-04-02T13:18:08.111Z,1.63
2018-04-02T13:20:36.022Z,1.63
2018-04-02T13:23:03.576Z,1.53
2018-04-02T13:25:31.131Z,1.37
2018-04-02T13:27:58.711Z,1.67
2018-04-02T13:30:26.691Z,1.30
2018-04-02T13:32:54.656Z,1.20
2018-04-02T13:35:22.320Z,1.57
2018-04-02T13:37:50.083Z,1.60
2018-04-02T13:40:17.735Z,1.07
2018-04-02T13:42:45.294Z,1.00
2018-04-02T13:45:12.925Z,1.30
2018-04-02T13:47:40.628Z,1.63
2018-04-02T13:50:08.210Z,1.20
2018-04-02T13:52:35.812Z,1.40
2018-04-02T13:55:03.513Z,1.40
2018-04-02T13:57:31.106Z,1.60
2018-04-02T13:59:58.677Z,1.20
2018-04-02T14:02:26.508Z,1.40
2018-04-02T14:04:54.361Z,1.80
2018-04-02T14:07:22.226Z,1.13
2018-04-02T14:09:50.002Z,1.30
2018-04-02T14:12:17.547Z,1.50
2018-04-02T14:14:45.146Z,1.80
2018-04-02T14:17:12.724Z,1.30
2018-04-02T14:19:40.432Z,1.10
2018-04-02T14:22:08.030Z,1.10
2018-04-02T14:24:35.654Z,1.30
2018-04-02T14:27:03.207Z,1.07
2018-04-02T14:29:30.786Z,1.30
2018-04-02T14:31:58.336Z,1.33
2018-04-02T14:34:26.373Z,1.00
2018-04-02T14:36:54.017Z,1.60
2018-04-02T14:39:21.662Z,1.23
2018-04-02T14:41:49.501Z,1.40
2018-04-02T14:44:17.291Z,1.30
2018-04-02T14:46:46.096Z,1.33
2018-04-02T14:49:13.891Z,1.10
2018-04-02T14:51:41.746Z,1.40
2018-04-02T14:54:10.972Z,1.80
2018-04-02T14:56:39.259Z,1.40
2018-04-02T14:59:07.475Z,1.27
2018-04-02T15:01:35.415Z,1.00
2018-04-02T15:04:06.237Z,1.40
2018-04-02T15:06:33.890Z,1.90
2018-04-02T15:09:01.756Z,1.20
2018-04-02T15:11:29.930Z,1.13
2018-04-02T15:13:58.614Z,1.20
2018-04-02T15:16:27.509Z,0.83
2018-04-02T15:18:55.151Z,1.30
2018-04-02T15:21:22.746Z,1.20
2018-04-02T15:23:51.003Z,0.90
2018-04-02T15:26:19.381Z,1.37
2018-04-02T15:28:47.248Z,1.20
2018-04-02T15:31:14.986Z,1.50
2018-04-02T15:33:42.636Z,1.20
2018-04-02T15:36:10.643Z,1.00
2018-04-02T15:38:39.532Z,1.50
2018-04-02T15:41:07.106Z,1.30
2018-04-02T15:43:34.683Z,1.30
2018-04-02T15:46:02.621Z,0.60
2018-04-02T15:48:30.385Z,1.00
2018-04-02T15:50:58.153Z,0.93
2018-04-02T15:53:26.117Z,1.10
2018-04-02T15:55:54.189Z,1.10
2018-04-02T15:58:22.903Z,0.97
2018-04-02T16:00:51.284Z,0.83
2018-04-02T16:03:21.343Z,0.90
2018-04-02T16:05:49.240Z,1.20
2018-04-02T16:08:17.207Z,1.17
2018-04-02T16:10:45.323Z,0.90
2018-04-02T16:13:13.453Z,1.30
2018-04-02T16:15:41.422Z,1.00
2018-04-02T16:18:10.005Z,0.90
2018-04-02T16:20:38.077Z,1.00
2018-04-02T16:23:06.046Z,1.20
2018-04-02T16:25:34.117Z,0.90
2018-04-02T16:28:01.983Z,1.20
2018-04-02T16:30:29.747Z,1.00
2018-04-02T16:32:57.741Z,1.37
2018-04-02T16:35:25.686Z,1.10
2018-04-02T16:37:53.767Z,1.20
2018-04-02T16:40:22.033Z,1.30
2018-04-02T16:42:49.898Z,1.33
2018-04-02T16:45:17.814Z,1.10
2018-04-02T16:47:45.700Z,1.77
2018-04-02T16:50:13.609Z,1.40
2018-04-02T16:52:41.571Z,1.33
2018-04-02T16:55:09.542Z,1.87
2018-04-02T16:57:37.744Z,1.00
2018-04-02T17:00:05.570Z,1.00
2018-04-02T17:02:33.757Z,0.90
2018-04-02T17:05:01.745Z,0.90
2018-04-02T17:07:29.661Z,0.90
2018-04-02T17:09:57.662Z,1.10
2018-04-02T17:12:25.427Z,1.03
2018-04-02T17:14:53.733Z,1.43
2018-04-02T17:17:21.671Z,1.67
2018-04-02T17:19:49.676Z,1.50
2018-04-02T17:22:18.020Z,1.20
2018-04-02T17:24:45.929Z,1.50
2018-04-02T17:27:13.743Z,1.27
2018-04-02T17:29:41.620Z,1.30
2018-04-02T17:32:09.483Z,1.40
2018-04-02T17:34:37.661Z,1.20
2018-04-02T17:37:05.938Z,1.10
2018-04-02T17:39:35.539Z,1.17
2018-04-02T17:42:03.610Z,1.10
2018-04-02T17:44:31.465Z,1.17
2018-04-02T17:46:59.635Z,1.30
2018-04-02T17:49:27.722Z,1.40
2018-04-02T17:51:56.393Z,1.80
2018-04-02T17:54:24.992Z,1.70
2018-04-02T17:56:53.022Z,1.50
2018-04-02T17:59:21.135Z,1.77
2018-04-02T18:01:49.199Z,1.70
2018-04-02T18:04:17.176Z,1.90
2018-04-02T18:06:45.100Z,1.77
2018-04-02T18:09:13.117Z,1.50
2018-04-02T18:11:40.977Z,1.30
2018-04-02T18:14:09.082Z,2.03
2018-04-02T18:16:37.225Z,1.90
2018-04-02T18:19:05.193Z,1.13
2018-04-02T18:21:34.101Z,1.77
2018-04-02T18:24:02.053Z,1.57
2018-04-02T18:26:29.918Z,1.87
2018-04-02T18:28:57.925Z,1.50
2018-04-02T18:31:25.857Z,1.30
2018-04-02T18:33:53.842Z,0.90
2018-04-02T18:36:21.931Z,1.47
2018-04-02T18:38:49.866Z,1.33
2018-04-02T18:41:18.450Z,1.50
2018-04-02T18:43:46.319Z,1.70
2018-04-02T18:46:14.953Z,1.57
2018-04-02T18:48:43.072Z,1.50
2018-04-02T18:51:11.042Z,1.47
2018-04-02T18:53:39.018Z,1.50
2018-04-02T18:56:07.721Z,1.83
2018-04-02T18:58:35.771Z,1.90
2018-04-02T19:01:03.690Z,1.60
2018-04-02T19:03:32.543Z,1.80
2018-04-02T19:06:00.596Z,1.67
2018-04-02T19:08:28.565Z,1.50
2018-04-02T19:10:56.534Z,1.83
2018-04-02T19:13:24.483Z,1.73
2018-04-02T19:15:52.345Z,1.43
2018-04-02T19:18:20.236Z,1.83
2018-04-02T19:20:48.205Z,1.57
2018-04-02T19:23:17.225Z,1.50
2018-04-02T19:25:46.123Z,1.60
2018-04-02T19:28:14.032Z,2.20
2018-04-02T19:30:42.132Z,2.00
2018-04-02T19:33:11.337Z,2.00
2018-04-02T19:35:39.409Z,1.90
2018-04-02T19:38:07.367Z,2.30
2018-04-02T19:40:35.234Z,2.17
2018-04-02T19:43:04.008Z,2.50
2018-04-02T19:45:32.399Z,3.20
2018-04-02T19:48:00.486Z,2.00
2018-04-02T19:50:28.510Z,2.50
2018-04-02T19:52:56.514Z,3.10
2018-04-02T19:55:24.891Z,2.30
2018-04-02T19:57:53.270Z,1.77
2018-04-02T20:00:21.587Z,1.87
2018-04-02T20:02:49.513Z,2.13
2018-04-02T20:05:17.383Z,2.43
2018-04-02T20:07:45.354Z,4.40
2018-04-02T20:10:14.240Z,4.30
2018-04-02T20:12:42.316Z,3.23
2018-04-02T20:15:10.279Z,4.33
2018-04-02T20:17:38.353Z,2.53
2018-04-02T20:20:06.320Z,1.93
2018-04-02T20:22:34.187Z,1.87
2018-04-02T20:25:02.422Z,2.27
2018-04-02T20:27:30.289Z,2.80
2018-04-02T20:29:58.196Z,2.40
2018-04-02T20:32:26.164Z,1.90
2018-04-02T20:34:54.545Z,2.23
2018-04-02T20:37:22.819Z,1.87
2018-04-02T20:39:50.789Z,2.40
2018-04-02T20:42:18.860Z,2.03
2018-04-02T20:44:46.706Z,1.93
2018-04-02T20:47:14.504Z,1.90
2018-04-02T20:49:42.866Z,1.93
2018-04-02T20:52:10.808Z,2.07
2018-04-02T20:54:38.604Z,2.07
2018-04-02T20:57:06.404Z,2.40
2018-04-02T20:59:34.248Z,2.10
2018-04-02T21:02:02.201Z,1.73
2018-04-02T21:04:31.803Z,2.00
2018-04-02T21:07:00.493Z,1.83
2018-04-02T21:09:28.463Z,1.50
2018-04-02T21:12:00.138Z,1.77
2018-04-02T21:14:28.700Z,2.10
2018-04-02T21:16:56.669Z,1.93
2018-04-02T21:19:24.644Z,1.77
2018-04-02T21:21:52.607Z,1.77
2018-04-02T21:24:20.475Z,1.83
2018-04-02T21:26:48.239Z,2.40
2018-04-02T21:29:16.208Z,1.80
2018-04-02T21:31:44.074Z,2.03
2018-04-02T21:34:12.042Z,1.80
2018-04-02T21:36:39.909Z,2.10
2018-04-02T21:39:08.281Z,2.00
2018-04-02T21:41:36.159Z,1.50
2018-04-02T21:44:04.124Z,1.80
2018-04-02T21:46:31.935Z,2.07
2018-04-02T21:48:59.856Z,1.93
2018-04-02T21:51:27.885Z,2.10
2018-04-02T21:53:55.572Z,2.20
2018-04-02T21:56:23.456Z,1.47
2018-04-02T21:58:51.529Z,1.70
2018-04-02T22:01:19.496Z,1.80
2018-04-02T22:03:47.621Z,1.77
2018-04-02T22:06:27.310Z,1.67
2018-04-02T22:08:55.231Z,1.70
2018-04-02T22:11:23.974Z,1.63
2018-04-02T22:13:52.550Z,1.70
2018-04-02T22:16:20.258Z,1.93
2018-04-02T22:18:47.976Z,1.90
2018-04-02T22:21:16.007Z,2.00
2018-04-02T22:23:43.593Z,1.47
2018-04-02T22:26:11.348Z,1.90
2018-04-02T22:28:39.089Z,2.00
2018-04-02T22:31:06.901Z,1.80
2018-04-02T22:33:34.707Z,1.70
2018-04-02T22:36:02.402Z,1.90
2018-04-02T22:38:30.024Z,2.07
2018-04-02T22:40:57.598Z,2.00
2018-04-02T22:43:25.423Z,2.00
2018-04-02T22:45:53.013Z,2.62
2018-04-02T22:48:21.307Z,1.98
2018-04-02T22:50:48.871Z,2.28
2018-04-02T22:53:17.203Z,1.83
2018-04-02T22:55:44.803Z,1.85
2018-04-02T22:58:12.509Z,2.40
2018-04-02T23:00:40.069Z,2.33
2018-04-02T23:03:07.647Z,2.30
2018-04-02T23:05:35.291Z,2.08
2018-04-02T23:08:02.872Z,1.92
2018-04-02T23:10:30.617Z,2.22
2018-04-02T23:12:58.167Z,2.83
2018-04-02T23:15:25.735Z,2.35
2018-04-02T23:17:53.335Z,3.03
2018-04-02T23:20:20.890Z,2.20
2018-04-02T23:22:53.040Z,2.50
2018-04-02T23:25:20.624Z,2.53
2018-04-02T23:27:48.334Z,2.50
2018-04-02T23:30:16.012Z,2.35
2018-04-02T23:32:43.612Z,3.33
2018-04-02T23:35:11.215Z,2.60
2018-04-02T23:37:38.775Z,2.45
2018-04-02T23:40:06.335Z,2.10
2018-04-02T23:42:33.946Z,2.78
2018-04-02T23:45:01.625Z,3.47
2018-04-02T23:47:29.531Z,2.05
2018-04-02T23:49:57.088Z,2.60
2018-04-02T23:52:24.642Z,2.67
2018-04-02T23:54:52.290Z,2.20
2018-04-02T23:57:20.631Z,2.20
2018-04-02T23:59:48.467Z,2.37
